createdAt,value
2022-11-15T00:00:01.285Z,5.50
2022-11-15T00:05:02.804Z,5.39
2022-11-15T00:10:04.846Z,5.40
2022-11-15T00:15:06.912Z,5.38
2022-11-15T00:20:08.962Z,5.42
2022-11-15T00:25:10.368Z,5.37
2022-11-15T00:30:12.389Z,5.22
2022-11-15T00:35:13.874Z,5.28
2022-11-15T00:40:16.103Z,5.23
2022-11-15T00:45:17.654Z,5.27
2022-11-15T00:50:19.712Z,5.23
2022-11-15T00:55:21.247Z,5.19
2022-11-15T01:00:22.868Z,5.27
2022-11-15T01:05:24.339Z,5.28
2022-11-15T01:10:26.886Z,5.20
2022-11-15T01:15:28.355Z,5.32
2022-11-15T01:20:29.853Z,5.34
2022-11-15T01:25:31.251Z,5.26
2022-11-15T01:30:32.911Z,5.24
2022-11-15T01:35:34.381Z,5.30
2022-11-15T01:40:35.875Z,5.29
2022-11-15T01:45:37.443Z,5.31
2022-11-15T01:50:39.033Z,5.25
2022-11-15T01:55:40.535Z,5.23
2022-11-15T02:00:42.264Z,5.22
2022-11-15T02:05:44.876Z,5.16
2022-11-15T02:10:49.602Z,5.04
2022-11-15T02:16:30.543Z,4.98
2022-11-15T02:22:00.491Z,4.92
2022-11-15T02:27:23.613Z,4.91
2022-11-15T02:32:42.115Z,4.84
2022-11-15T02:37:53.325Z,4.77
2022-11-15T02:43:16.994Z,4.89
2022-11-15T02:48:19.424Z,4.96
2022-11-15T02:53:26.338Z,4.87
2022-11-15T02:58:49.040Z,4.87
2022-11-15T03:03:56.341Z,4.89
2022-11-15T03:09:11.029Z,4.90
2022-11-15T03:14:35.305Z,4.77
2022-11-15T03:19:45.735Z,4.82
2022-11-15T03:24:53.103Z,4.78
2022-11-15T03:30:00.576Z,4.77
2022-11-15T03:35:12.760Z,4.72
2022-11-15T03:40:15.304Z,4.76
2022-11-15T03:45:23.397Z,4.76
2022-11-15T03:50:25.976Z,4.53
2022-11-15T03:55:27.478Z,4.52
2022-11-15T04:00:30.009Z,4.49
2022-11-15T04:05:31.449Z,4.50
2022-11-15T04:10:32.956Z,4.55
2022-11-15T04:15:34.784Z,4.55
2022-11-15T04:20:54.763Z,4.48
2022-11-15T04:25:59.156Z,4.44
2022-11-15T04:31:00.652Z,4.46
2022-11-15T04:36:20.774Z,4.34
2022-11-15T04:41:23.249Z,4.36
2022-11-15T04:46:25.332Z,4.36
2022-11-15T04:51:26.819Z,4.35
2022-11-15T04:56:28.300Z,4.24
2022-11-15T05:01:29.907Z,4.23
2022-11-15T05:06:31.768Z,4.04
2022-11-15T05:11:33.254Z,4.11
2022-11-15T05:16:34.867Z,4.22
2022-11-15T05:21:37.056Z,4.23
2022-11-15T05:26:38.498Z,4.15
2022-11-15T05:31:42.262Z,4.22
2022-11-15T05:36:46.687Z,4.17
2022-11-15T05:41:51.337Z,4.17
2022-11-15T05:46:55.320Z,4.17
2022-11-15T05:51:58.544Z,4.10
2022-11-15T05:57:00.906Z,4.14
2022-11-15T06:02:02.428Z,4.09
2022-11-15T06:07:03.956Z,4.03
2022-11-15T06:12:05.635Z,4.04
2022-11-15T06:17:11.200Z,4.08
2022-11-15T06:22:12.956Z,4.14
2022-11-15T06:27:14.390Z,4.15
2022-11-15T06:32:15.819Z,4.29
2022-11-15T06:37:17.249Z,4.24
2022-11-15T06:42:18.685Z,4.32
2022-11-15T06:47:20.143Z,4.42
2022-11-15T06:52:22.675Z,4.53
2022-11-15T06:57:24.070Z,4.48
2022-11-15T07:02:25.522Z,4.50
2022-11-15T07:07:27.178Z,4.59
2022-11-15T07:12:28.684Z,4.79
2022-11-15T07:17:30.117Z,4.98
2022-11-15T07:22:31.538Z,5.08
2022-11-15T07:27:33.369Z,5.22
2022-11-15T07:32:35.538Z,5.34
2022-11-15T07:37:36.955Z,5.54
2022-11-15T07:42:53.594Z,5.75
2022-11-15T07:47:56.847Z,6.04
2022-11-15T07:53:00.047Z,6.34
2022-11-15T07:58:03.071Z,6.52
2022-11-15T08:03:12.915Z,6.83
2022-11-15T08:08:14.369Z,7.17
2022-11-15T08:13:15.994Z,7.10
2022-11-15T08:18:17.852Z,7.11
2022-11-15T08:23:19.422Z,7.47
2022-11-15T08:28:20.815Z,7.58
2022-11-15T08:33:22.288Z,7.78
2022-11-15T08:38:24.122Z,7.94
2022-11-15T08:43:25.531Z,7.95
2022-11-15T08:48:27.154Z,8.02
2022-11-15T08:53:28.606Z,8.18
2022-11-15T08:58:30.260Z,8.34
2022-11-15T09:03:32.019Z,8.55
2022-11-15T09:08:46.955Z,8.89
2022-11-15T09:13:49.236Z,9.29
2022-11-15T09:18:50.903Z,9.39
2022-11-15T09:23:53.118Z,9.65
2022-11-15T09:28:54.569Z,10.26
2022-11-15T09:33:56.303Z,10.51
2022-11-15T09:38:59.239Z,10.63
2022-11-15T09:44:39.768Z,10.92
2022-11-15T09:49:41.214Z,11.27
2022-11-15T09:54:56.332Z,11.66
2022-11-15T10:00:46.015Z,11.92
2022-11-15T10:05:32.690Z,11.86
2022-11-15T10:10:39.486Z,11.83
2022-11-15T10:15:46.264Z,11.62
2022-11-15T10:21:00.897Z,11.64
2022-11-15T10:26:07.037Z,11.71
2022-11-15T10:31:26.523Z,11.83
2022-11-15T10:36:29.527Z,11.85
2022-11-15T10:41:38.186Z,12.23
2022-11-15T10:46:47.213Z,12.50
2022-11-15T10:51:51.985Z,12.41
2022-11-15T10:56:56.886Z,12.92
2022-11-15T11:01:58.769Z,12.95
2022-11-15T11:07:01.053Z,13.12
2022-11-15T11:12:04.286Z,12.98
2022-11-15T11:17:23.639Z,12.89
2022-11-15T11:22:39.394Z,12.74
2022-11-15T11:27:52.787Z,12.86
2022-11-15T11:33:02.502Z,12.84
2022-11-15T11:38:03.852Z,13.07
2022-11-15T11:43:23.729Z,13.46
2022-11-15T11:48:46.680Z,13.53
2022-11-15T11:54:02.265Z,13.38
2022-11-15T11:59:12.027Z,13.34
2022-11-15T12:04:28.023Z,13.31
2022-11-15T12:09:39.059Z,13.27
2022-11-15T12:14:52.877Z,13.26
2022-11-15T12:19:59.552Z,13.24
2022-11-15T12:25:06.072Z,13.23
2022-11-15T12:30:15.790Z,13.25
2022-11-15T12:35:36.327Z,13.37
2022-11-15T12:40:58.999Z,13.30
2022-11-15T12:46:05.443Z,13.32
2022-11-15T12:51:06.933Z,13.33
2022-11-15T12:56:15.876Z,13.33
2022-11-15T13:01:36.161Z,13.33
2022-11-15T13:06:41.464Z,13.36
2022-11-15T13:11:49.149Z,13.34
2022-11-15T13:16:59.882Z,13.35
2022-11-15T13:22:28.035Z,13.34
2022-11-15T13:27:29.956Z,13.34
2022-11-15T13:32:31.788Z,13.30
2022-11-15T13:37:34.437Z,13.30
2022-11-15T13:42:35.872Z,13.29
2022-11-15T13:47:37.296Z,13.28
2022-11-15T13:52:41.572Z,13.22
2022-11-15T13:57:46.708Z,13.18
2022-11-15T14:02:48.226Z,13.07
2022-11-15T14:08:14.329Z,12.96
2022-11-15T14:13:30.814Z,12.81
2022-11-15T14:18:43.474Z,12.73
2022-11-15T14:23:45.549Z,12.62
2022-11-15T14:28:47.000Z,12.51
2022-11-15T14:33:48.858Z,12.43
2022-11-15T14:38:50.386Z,12.31
2022-11-15T14:43:53.070Z,12.21
2022-11-15T14:48:54.652Z,12.10
2022-11-15T14:53:56.380Z,12.01
2022-11-15T14:58:59.488Z,11.88
2022-11-15T15:04:00.947Z,11.80
2022-11-15T15:09:02.776Z,11.72
2022-11-15T15:14:04.242Z,11.64
2022-11-15T15:19:05.681Z,11.55
2022-11-15T15:24:14.416Z,11.45
2022-11-15T15:29:16.360Z,11.35
2022-11-15T15:34:17.856Z,11.13
2022-11-15T15:39:19.264Z,11.03
2022-11-15T15:44:20.730Z,10.95
2022-11-15T15:49:22.214Z,10.86
2022-11-15T15:54:23.624Z,10.79
2022-11-15T15:59:25.172Z,10.69
2022-11-15T16:04:27.036Z,10.55
2022-11-15T16:09:46.984Z,10.48
2022-11-15T16:14:48.435Z,10.40
2022-11-15T16:19:49.861Z,10.42
2022-11-15T16:24:51.296Z,10.45
2022-11-15T16:29:52.705Z,10.40
2022-11-15T16:34:55.008Z,10.31
2022-11-15T16:40:00.840Z,10.20
2022-11-15T16:45:02.608Z,10.12
2022-11-15T16:50:04.321Z,10.00
2022-11-15T16:55:06.410Z,9.90
2022-11-15T17:00:11.679Z,9.82
2022-11-15T17:05:19.750Z,9.72
2022-11-15T17:10:23.537Z,9.74
2022-11-15T17:15:25.423Z,9.67
2022-11-15T17:20:26.968Z,9.58
2022-11-15T17:25:28.396Z,9.48
2022-11-15T17:30:29.814Z,9.43
2022-11-15T17:35:31.279Z,9.38
2022-11-15T17:40:32.765Z,9.29
2022-11-15T17:45:34.665Z,9.20
2022-11-15T17:50:37.228Z,9.06
2022-11-15T17:55:38.645Z,8.91
2022-11-15T18:00:40.285Z,8.89
2022-11-15T18:05:43.813Z,8.78
2022-11-15T18:10:45.246Z,8.75
2022-11-15T18:15:55.021Z,8.64
2022-11-15T18:21:07.296Z,8.64
2022-11-15T18:26:11.911Z,8.60
2022-11-15T18:31:21.745Z,8.51
2022-11-15T18:36:26.282Z,8.47
2022-11-15T18:41:28.901Z,8.38
2022-11-15T18:46:32.310Z,8.32
2022-11-15T18:51:35.400Z,8.32
2022-11-15T18:56:37.673Z,8.29
2022-11-15T19:01:40.874Z,8.22
2022-11-15T19:06:43.940Z,8.17
2022-11-15T19:11:47.127Z,8.13
2022-11-15T19:16:55.570Z,8.03
2022-11-15T19:21:59.585Z,8.01
2022-11-15T19:27:01.067Z,8.05
2022-11-15T19:32:03.933Z,8.04
2022-11-15T19:37:05.404Z,8.10
2022-11-15T19:42:06.853Z,8.16
2022-11-15T19:47:09.353Z,8.24
2022-11-15T19:52:10.824Z,8.30
2022-11-15T19:57:12.232Z,8.36
2022-11-15T20:02:13.689Z,8.40
2022-11-15T20:07:15.133Z,8.42
2022-11-15T20:12:16.668Z,8.54
2022-11-15T20:17:18.177Z,8.55
2022-11-15T20:22:19.572Z,8.62
2022-11-15T20:27:21.008Z,8.61
2022-11-15T20:32:22.536Z,8.56
2022-11-15T20:37:24.087Z,8.58
2022-11-15T20:42:25.489Z,8.56
2022-11-15T20:47:30.448Z,8.60
2022-11-15T20:52:31.892Z,8.64
2022-11-15T20:57:33.282Z,8.66
2022-11-15T21:02:34.781Z,8.67
2022-11-15T21:07:36.327Z,8.68
2022-11-15T21:12:37.888Z,8.71
2022-11-15T21:17:39.358Z,8.72
2022-11-15T21:22:40.984Z,8.66
2022-11-15T21:27:42.409Z,8.65
2022-11-15T21:32:44.989Z,8.64
2022-11-15T21:37:47.814Z,8.61
2022-11-15T21:42:51.136Z,8.58
2022-11-15T21:47:52.535Z,8.61
2022-11-15T21:52:53.956Z,8.64
2022-11-15T21:57:55.409Z,8.60
2022-11-15T22:02:56.833Z,8.59
2022-11-15T22:07:58.439Z,8.53
2022-11-15T22:13:00.086Z,8.41
2022-11-15T22:18:01.873Z,8.34
2022-11-15T22:23:04.555Z,8.38
2022-11-15T22:28:06.232Z,8.37
2022-11-15T22:33:08.015Z,8.43
2022-11-15T22:38:10.474Z,8.50
2022-11-15T22:43:13.606Z,8.50
2022-11-15T22:48:15.924Z,8.46
2022-11-15T22:53:18.936Z,8.31
2022-11-15T22:58:22.222Z,8.25
2022-11-15T23:03:25.206Z,8.25
2022-11-15T23:08:26.956Z,8.25
2022-11-15T23:13:30.793Z,8.26
2022-11-15T23:18:37.783Z,8.30
2022-11-15T23:23:39.498Z,8.29
2022-11-15T23:28:41.161Z,8.21
2022-11-15T23:33:58.061Z,8.17
2022-11-15T23:38:59.789Z,8.17
2022-11-15T23:44:01.754Z,8.17
2022-11-15T23:49:03.954Z,8.14
2022-11-15T23:54:06.289Z,8.13
2022-11-15T23:59:08.652Z,8.17
